sensor_id;sensor_type;location;lat;lon;timestamp;P1;durP1;ratioP1;P2;durP2;ratioP2
68866;SDS011;56451;44.804;20.476;2022-07-01T00:01:25;13.80;;;10.10;;
68866;SDS011;56451;44.804;20.476;2022-07-01T00:03:51;16.20;;;10.48;;
68866;SDS011;56451;44.804;20.476;2022-07-01T00:06:17;14.13;;;10.57;;
68866;SDS011;56451;44.804;20.476;2022-07-01T00:08:43;12.70;;;9.68;;
68866;SDS011;56451;44.804;20.476;2022-07-01T00:11:09;15.32;;;9.50;;
68866;SDS011;56451;44.804;20.476;2022-07-01T00:13:35;14.37;;;9.23;;
68866;SDS011;56451;44.804;20.476;2022-07-01T00:16:00;16.00;;;9.68;;
68866;SDS011;56451;44.804;20.476;2022-07-01T00:18:26;14.23;;;9.47;;
68866;SDS011;56451;44.804;20.476;2022-07-01T00:20:52;12.38;;;8.65;;
68866;SDS011;56451;44.804;20.476;2022-07-01T00:23:18;11.23;;;9.25;;
68866;SDS011;56451;44.804;20.476;2022-07-01T00:25:44;12.83;;;9.37;;
68866;SDS011;56451;44.804;20.476;2022-07-01T00:28:10;13.98;;;9.07;;
68866;SDS011;56451;44.804;20.476;2022-07-01T00:30:37;12.88;;;9.07;;
68866;SDS011;56451;44.804;20.476;2022-07-01T00:33:03;18.40;;;9.38;;
68866;SDS011;56451;44.804;20.476;2022-07-01T00:35:29;13.23;;;9.52;;
68866;SDS011;56451;44.804;20.476;2022-07-01T00:37:55;15.40;;;9.43;;
68866;SDS011;56451;44.804;20.476;2022-07-01T00:40:21;13.48;;;9.82;;
68866;SDS011;56451;44.804;20.476;2022-07-01T00:42:46;14.73;;;9.87;;
68866;SDS011;56451;44.804;20.476;2022-07-01T00:45:12;19.97;;;10.10;;
68866;SDS011;56451;44.804;20.476;2022-07-01T00:47:39;15.20;;;10.20;;
68866;SDS011;56451;44.804;20.476;2022-07-01T00:50:10;12.45;;;9.38;;
68866;SDS011;56451;44.804;20.476;2022-07-01T00:52:38;12.10;;;9.27;;
68866;SDS011;56451;44.804;20.476;2022-07-01T00:55:06;12.50;;;9.40;;
68866;SDS011;56451;44.804;20.476;2022-07-01T00:57:33;16.40;;;9.75;;
68866;SDS011;56451;44.804;20.476;2022-07-01T01:00:05;13.85;;;9.80;;
68866;SDS011;56451;44.804;20.476;2022-07-01T01:02:33;12.35;;;9.60;;
68866;SDS011;56451;44.804;20.476;2022-07-01T01:04:59;19.27;;;9.47;;
68866;SDS011;56451;44.804;20.476;2022-07-01T01:07:25;17.92;;;9.85;;
68866;SDS011;56451;44.804;20.476;2022-07-01T01:09:52;13.38;;;8.90;;
68866;SDS011;56451;44.804;20.476;2022-07-01T01:12:17;12.75;;;9.02;;
68866;SDS011;56451;44.804;20.476;2022-07-01T01:14:47;14.00;;;10.17;;
68866;SDS011;56451;44.804;20.476;2022-07-01T01:17:14;16.27;;;10.05;;
68866;SDS011;56451;44.804;20.476;2022-07-01T01:19:41;14.02;;;9.82;;
68866;SDS011;56451;44.804;20.476;2022-07-01T01:22:08;15.77;;;10.32;;
68866;SDS011;56451;44.804;20.476;2022-07-01T01:24:38;17.25;;;10.77;;
68866;SDS011;56451;44.804;20.476;2022-07-01T01:27:04;15.73;;;10.30;;
68866;SDS011;56451;44.804;20.476;2022-07-01T01:29:31;17.15;;;9.80;;
68866;SDS011;56451;44.804;20.476;2022-07-01T01:31:58;16.40;;;9.90;;
68866;SDS011;56451;44.804;20.476;2022-07-01T01:34:24;14.13;;;10.45;;
68866;SDS011;56451;44.804;20.476;2022-07-01T01:36:49;14.63;;;9.67;;
68866;SDS011;56451;44.804;20.476;2022-07-01T01:39:15;16.05;;;10.23;;
68866;SDS011;56451;44.804;20.476;2022-07-01T01:41:41;16.60;;;9.37;;
68866;SDS011;56451;44.804;20.476;2022-07-01T01:44:07;13.40;;;8.68;;
68866;SDS011;56451;44.804;20.476;2022-07-01T01:46:34;16.27;;;9.45;;
68866;SDS011;56451;44.804;20.476;2022-07-01T01:49:00;15.07;;;9.95;;
68866;SDS011;56451;44.804;20.476;2022-07-01T01:51:26;12.60;;;9.40;;
68866;SDS011;56451;44.804;20.476;2022-07-01T01:53:52;15.90;;;10.30;;
68866;SDS011;56451;44.804;20.476;2022-07-01T01:56:18;15.07;;;10.32;;
68866;SDS011;56451;44.804;20.476;2022-07-01T01:58:44;17.25;;;10.10;;
68866;SDS011;56451;44.804;20.476;2022-07-01T02:01:10;18.63;;;9.40;;
68866;SDS011;56451;44.804;20.476;2022-07-01T02:03:38;14.20;;;9.55;;
68866;SDS011;56451;44.804;20.476;2022-07-01T02:06:05;16.05;;;10.88;;
68866;SDS011;56451;44.804;20.476;2022-07-01T02:08:32;14.27;;;10.02;;
68866;SDS011;56451;44.804;20.476;2022-07-01T02:10:58;13.33;;;9.83;;
68866;SDS011;56451;44.804;20.476;2022-07-01T02:13:24;19.83;;;10.30;;
68866;SDS011;56451;44.804;20.476;2022-07-01T02:15:50;15.98;;;10.45;;
68866;SDS011;56451;44.804;20.476;2022-07-01T02:18:16;18.13;;;10.07;;
68866;SDS011;56451;44.804;20.476;2022-07-01T02:20:43;15.93;;;9.82;;
68866;SDS011;56451;44.804;20.476;2022-07-01T02:23:09;13.13;;;10.43;;
68866;SDS011;56451;44.804;20.476;2022-07-01T02:25:35;15.00;;;10.40;;
68866;SDS011;56451;44.804;20.476;2022-07-01T02:28:02;12.25;;;10.20;;
68866;SDS011;56451;44.804;20.476;2022-07-01T02:30:28;16.85;;;10.40;;
68866;SDS011;56451;44.804;20.476;2022-07-01T02:32:56;14.88;;;9.52;;
68866;SDS011;56451;44.804;20.476;2022-07-01T02:35:22;18.73;;;10.23;;
68866;SDS011;56451;44.804;20.476;2022-07-01T02:37:48;13.48;;;10.00;;
68866;SDS011;56451;44.804;20.476;2022-07-01T02:40:13;15.20;;;9.23;;
68866;SDS011;56451;44.804;20.476;2022-07-01T02:42:39;14.07;;;9.48;;
68866;SDS011;56451;44.804;20.476;2022-07-01T02:45:06;13.60;;;10.73;;
68866;SDS011;56451;44.804;20.476;2022-07-01T02:47:37;16.10;;;10.02;;
68866;SDS011;56451;44.804;20.476;2022-07-01T02:50:05;14.20;;;10.23;;
68866;SDS011;56451;44.804;20.476;2022-07-01T02:52:33;14.45;;;10.05;;
68866;SDS011;56451;44.804;20.476;2022-07-01T02:55:00;15.20;;;10.68;;
68866;SDS011;56451;44.804;20.476;2022-07-01T02:57:27;17.23;;;10.13;;
68866;SDS011;56451;44.804;20.476;2022-07-01T02:59:52;14.43;;;10.25;;
68866;SDS011;56451;44.804;20.476;2022-07-01T03:02:19;14.80;;;9.80;;
68866;SDS011;56451;44.804;20.476;2022-07-01T03:04:48;16.43;;;10.50;;
68866;SDS011;56451;44.804;20.476;2022-07-01T03:07:15;13.45;;;9.63;;
68866;SDS011;56451;44.804;20.476;2022-07-01T03:09:42;17.42;;;9.93;;
68866;SDS011;56451;44.804;20.476;2022-07-01T03:12:11;12.43;;;9.80;;
68866;SDS011;56451;44.804;20.476;2022-07-01T03:14:50;14.93;;;10.52;;
68866;SDS011;56451;44.804;20.476;2022-07-01T03:17:17;15.53;;;10.23;;
68866;SDS011;56451;44.804;20.476;2022-07-01T03:19:44;17.33;;;10.65;;
68866;SDS011;56451;44.804;20.476;2022-07-01T03:22:10;12.43;;;10.35;;
68866;SDS011;56451;44.804;20.476;2022-07-01T03:24:36;16.30;;;11.07;;
68866;SDS011;56451;44.804;20.476;2022-07-01T03:27:02;11.98;;;9.93;;
68866;SDS011;56451;44.804;20.476;2022-07-01T03:29:28;14.50;;;10.38;;
68866;SDS011;56451;44.804;20.476;2022-07-01T03:31:54;16.17;;;10.10;;
68866;SDS011;56451;44.804;20.476;2022-07-01T03:34:20;15.10;;;10.47;;
68866;SDS011;56451;44.804;20.476;2022-07-01T03:36:45;13.38;;;10.55;;
68866;SDS011;56451;44.804;20.476;2022-07-01T03:39:11;16.93;;;10.37;;
68866;SDS011;56451;44.804;20.476;2022-07-01T03:41:37;13.80;;;9.93;;
68866;SDS011;56451;44.804;20.476;2022-07-01T03:44:03;16.17;;;10.88;;
68866;SDS011;56451;44.804;20.476;2022-07-01T03:46:29;17.40;;;11.10;;
68866;SDS011;56451;44.804;20.476;2022-07-01T03:48:57;14.80;;;11.10;;
68866;SDS011;56451;44.804;20.476;2022-07-01T03:51:23;17.15;;;10.45;;
68866;SDS011;56451;44.804;20.476;2022-07-01T03:53:49;16.90;;;10.85;;
68866;SDS011;56451;44.804;20.476;2022-07-01T03:56:33;17.77;;;10.93;;
68866;SDS011;56451;44.804;20.476;2022-07-01T03:58:59;19.87;;;10.33;;
68866;SDS011;56451;44.804;20.476;2022-07-01T04:01:25;23.67;;;11.00;;
68866;SDS011;56451;44.804;20.476;2022-07-01T04:03:50;18.40;;;10.50;;
68866;SDS011;56451;44.804;20.476;2022-07-01T04:06:16;17.75;;;10.20;;
68866;SDS011;56451;44.804;20.476;2022-07-01T04:08:42;15.80;;;11.10;;
68866;SDS011;56451;44.804;20.476;2022-07-01T04:11:08;16.17;;;10.77;;
68866;SDS011;56451;44.804;20.476;2022-07-01T04:13:35;19.23;;;10.93;;
68866;SDS011;56451;44.804;20.476;2022-07-01T04:16:05;14.63;;;11.77;;
68866;SDS011;56451;44.804;20.476;2022-07-01T04:18:31;16.10;;;11.05;;
68866;SDS011;56451;44.804;20.476;2022-07-01T04:20:57;21.17;;;10.67;;
68866;SDS011;56451;44.804;20.476;2022-07-01T04:23:42;25.30;;;11.52;;
68866;SDS011;56451;44.804;20.476;2022-07-01T04:26:08;23.55;;;11.35;;
68866;SDS011;56451;44.804;20.476;2022-07-01T04:28:34;19.75;;;11.20;;
68866;SDS011;56451;44.804;20.476;2022-07-01T04:31:00;22.77;;;11.10;;
68866;SDS011;56451;44.804;20.476;2022-07-01T04:33:26;18.05;;;10.93;;
68866;SDS011;56451;44.804;20.476;2022-07-01T04:35:52;17.77;;;11.07;;
68866;SDS011;56451;44.804;20.476;2022-07-01T04:38:17;24.23;;;12.27;;
68866;SDS011;56451;44.804;20.476;2022-07-01T04:40:44;20.95;;;10.90;;
68866;SDS011;56451;44.804;20.476;2022-07-01T04:43:29;15.80;;;10.75;;
68866;SDS011;56451;44.804;20.476;2022-07-01T04:45:55;23.93;;;11.03;;
68866;SDS011;56451;44.804;20.476;2022-07-01T04:48:21;20.17;;;11.07;;
68866;SDS011;56451;44.804;20.476;2022-07-01T04:50:47;20.30;;;11.57;;
68866;SDS011;56451;44.804;20.476;2022-07-01T04:53:13;22.50;;;11.87;;
68866;SDS011;56451;44.804;20.476;2022-07-01T04:55:39;19.55;;;11.30;;
68866;SDS011;56451;44.804;20.476;2022-07-01T04:58:05;17.17;;;10.93;;
68866;SDS011;56451;44.804;20.476;2022-07-01T05:00:31;28.63;;;11.27;;
68866;SDS011;56451;44.804;20.476;2022-07-01T05:02:57;20.10;;;12.13;;
68866;SDS011;56451;44.804;20.476;2022-07-01T05:05:22;27.83;;;12.37;;
68866;SDS011;56451;44.804;20.476;2022-07-01T05:07:48;23.98;;;12.00;;
68866;SDS011;56451;44.804;20.476;2022-07-01T05:10:14;19.13;;;12.15;;
68866;SDS011;56451;44.804;20.476;2022-07-01T05:12:39;23.03;;;11.93;;
68866;SDS011;56451;44.804;20.476;2022-07-01T05:15:05;15.95;;;11.07;;
68866;SDS011;56451;44.804;20.476;2022-07-01T05:17:32;20.57;;;10.73;;
68866;SDS011;56451;44.804;20.476;2022-07-01T05:20:17;22.55;;;12.27;;
68866;SDS011;56451;44.804;20.476;2022-07-01T05:23:02;23.25;;;12.02;;
68866;SDS011;56451;44.804;20.476;2022-07-01T05:25:28;29.98;;;12.55;;
68866;SDS011;56451;44.804;20.476;2022-07-01T05:27:53;23.17;;;12.20;;
68866;SDS011;56451;44.804;20.476;2022-07-01T05:30:22;26.65;;;13.13;;
68866;SDS011;56451;44.804;20.476;2022-07-01T05:32:48;26.65;;;12.63;;
68866;SDS011;56451;44.804;20.476;2022-07-01T05:35:14;20.23;;;12.70;;
68866;SDS011;56451;44.804;20.476;2022-07-01T05:37:40;20.92;;;13.10;;
68866;SDS011;56451;44.804;20.476;2022-07-01T05:40:07;20.23;;;14.80;;
68866;SDS011;56451;44.804;20.476;2022-07-01T05:42:33;20.55;;;12.50;;
68866;SDS011;56451;44.804;20.476;2022-07-01T05:44:59;16.63;;;11.83;;
68866;SDS011;56451;44.804;20.476;2022-07-01T05:47:25;21.10;;;12.05;;
68866;SDS011;56451;44.804;20.476;2022-07-01T05:49:50;19.38;;;12.05;;
68866;SDS011;56451;44.804;20.476;2022-07-01T05:52:16;19.37;;;11.57;;
68866;SDS011;56451;44.804;20.476;2022-07-01T05:54:42;19.55;;;11.32;;
68866;SDS011;56451;44.804;20.476;2022-07-01T05:57:08;19.80;;;11.90;;
68866;SDS011;56451;44.804;20.476;2022-07-01T05:59:34;16.65;;;12.60;;
68866;SDS011;56451;44.804;20.476;2022-07-01T06:02:00;21.20;;;12.30;;
68866;SDS011;56451;44.804;20.476;2022-07-01T06:04:26;21.07;;;12.60;;
68866;SDS011;56451;44.804;20.476;2022-07-01T06:06:51;21.60;;;12.20;;
68866;SDS011;56451;44.804;20.476;2022-07-01T06:09:17;21.60;;;12.97;;
68866;SDS011;56451;44.804;20.476;2022-07-01T06:11:43;19.77;;;12.57;;
68866;SDS011;56451;44.804;20.476;2022-07-01T06:14:08;17.43;;;12.60;;
68866;SDS011;56451;44.804;20.476;2022-07-01T06:16:34;23.73;;;13.55;;
68866;SDS011;56451;44.804;20.476;2022-07-01T06:19:00;19.30;;;13.07;;
68866;SDS011;56451;44.804;20.476;2022-07-01T06:21:26;22.02;;;13.90;;
68866;SDS011;56451;44.804;20.476;2022-07-01T06:23:52;29.05;;;12.75;;
68866;SDS011;56451;44.804;20.476;2022-07-01T06:26:18;27.17;;;12.57;;
68866;SDS011;56451;44.804;20.476;2022-07-01T06:28:43;22.80;;;13.43;;
68866;SDS011;56451;44.804;20.476;2022-07-01T06:31:09;18.77;;;12.37;;
68866;SDS011;56451;44.804;20.476;2022-07-01T06:33:35;20.60;;;12.45;;
68866;SDS011;56451;44.804;20.476;2022-07-01T06:36:00;21.80;;;12.33;;
68866;SDS011;56451;44.804;20.476;2022-07-01T06:38:26;22.65;;;12.52;;
68866;SDS011;56451;44.804;20.476;2022-07-01T06:40:54;17.83;;;12.27;;
68866;SDS011;56451;44.804;20.476;2022-07-01T06:43:38;30.50;;;13.50;;
68866;SDS011;56451;44.804;20.476;2022-07-01T06:46:04;19.67;;;12.60;;
68866;SDS011;56451;44.804;20.476;2022-07-01T06:48:30;26.63;;;13.38;;
68866;SDS011;56451;44.804;20.476;2022-07-01T06:50:56;21.17;;;13.20;;
68866;SDS011;56451;44.804;20.476;2022-07-01T06:53:22;20.95;;;12.50;;
68866;SDS011;56451;44.804;20.476;2022-07-01T06:55:48;25.25;;;12.25;;
68866;SDS011;56451;44.804;20.476;2022-07-01T06:58:13;16.93;;;12.53;;
68866;SDS011;56451;44.804;20.476;2022-07-01T07:00:39;16.58;;;11.95;;
68866;SDS011;56451;44.804;20.476;2022-07-01T07:03:05;18.23;;;12.13;;
68866;SDS011;56451;44.804;20.476;2022-07-01T07:05:31;18.52;;;12.25;;
68866;SDS011;56451;44.804;20.476;2022-07-01T07:07:57;15.40;;;11.43;;
68866;SDS011;56451;44.804;20.476;2022-07-01T07:10:23;16.75;;;11.45;;
68866;SDS011;56451;44.804;20.476;2022-07-01T07:12:49;19.35;;;11.13;;
68866;SDS011;56451;44.804;20.476;2022-07-01T07:15:15;19.70;;;11.75;;
68866;SDS011;56451;44.804;20.476;2022-07-01T07:17:41;18.83;;;11.95;;
68866;SDS011;56451;44.804;20.476;2022-07-01T07:20:07;19.00;;;11.77;;
68866;SDS011;56451;44.804;20.476;2022-07-01T07:22:33;17.48;;;10.88;;
68866;SDS011;56451;44.804;20.476;2022-07-01T07:24:59;15.63;;;11.35;;
68866;SDS011;56451;44.804;20.476;2022-07-01T07:27:25;21.10;;;11.27;;
68866;SDS011;56451;44.804;20.476;2022-07-01T07:29:51;14.82;;;10.65;;
68866;SDS011;56451;44.804;20.476;2022-07-01T07:32:16;17.38;;;11.68;;
68866;SDS011;56451;44.804;20.476;2022-07-01T07:34:42;17.87;;;11.30;;
68866;SDS011;56451;44.804;20.476;2022-07-01T07:37:08;17.35;;;11.88;;
68866;SDS011;56451;44.804;20.476;2022-07-01T07:39:34;18.98;;;11.55;;
68866;SDS011;56451;44.804;20.476;2022-07-01T07:42:00;17.73;;;12.13;;
68866;SDS011;56451;44.804;20.476;2022-07-01T07:44:26;22.48;;;12.73;;
68866;SDS011;56451;44.804;20.476;2022-07-01T07:46:52;15.18;;;11.32;;
68866;SDS011;56451;44.804;20.476;2022-07-01T07:49:18;16.38;;;11.63;;
68866;SDS011;56451;44.804;20.476;2022-07-01T07:51:44;19.50;;;12.23;;
68866;SDS011;56451;44.804;20.476;2022-07-01T07:54:09;18.27;;;12.45;;
68866;SDS011;56451;44.804;20.476;2022-07-01T07:56:35;27.08;;;11.73;;
68866;SDS011;56451;44.804;20.476;2022-07-01T07:59:01;20.60;;;13.00;;
68866;SDS011;56451;44.804;20.476;2022-07-01T08:01:27;18.90;;;12.73;;
68866;SDS011;56451;44.804;20.476;2022-07-01T08:03:52;20.83;;;12.30;;
68866;SDS011;56451;44.804;20.476;2022-07-01T08:06:18;17.13;;;12.02;;
68866;SDS011;56451;44.804;20.476;2022-07-01T08:08:44;17.37;;;12.40;;
68866;SDS011;56451;44.804;20.476;2022-07-01T08:11:10;17.63;;;12.10;;
68866;SDS011;56451;44.804;20.476;2022-07-01T08:13:36;16.23;;;12.50;;
68866;SDS011;56451;44.804;20.476;2022-07-01T08:16:02;17.23;;;12.90;;
68866;SDS011;56451;44.804;20.476;2022-07-01T08:18:29;14.60;;;9.93;;
68866;SDS011;56451;44.804;20.476;2022-07-01T08:20:55;13.50;;;8.60;;
68866;SDS011;56451;44.804;20.476;2022-07-01T08:23:21;11.07;;;7.78;;
68866;SDS011;56451;44.804;20.476;2022-07-01T08:25:49;11.37;;;7.93;;
68866;SDS011;56451;44.804;20.476;2022-07-01T08:28:15;13.98;;;7.53;;
68866;SDS011;56451;44.804;20.476;2022-07-01T08:30:42;11.23;;;8.23;;
68866;SDS011;56451;44.804;20.476;2022-07-01T08:33:09;11.27;;;7.80;;
68866;SDS011;56451;44.804;20.476;2022-07-01T08:35:35;10.07;;;8.20;;
68866;SDS011;56451;44.804;20.476;2022-07-01T08:38:01;12.33;;;8.00;;
68866;SDS011;56451;44.804;20.476;2022-07-01T08:40:29;12.55;;;7.53;;
68866;SDS011;56451;44.804;20.476;2022-07-01T08:43:00;11.25;;;7.95;;
68866;SDS011;56451;44.804;20.476;2022-07-01T08:45:30;11.77;;;7.80;;
68866;SDS011;56451;44.804;20.476;2022-07-01T08:47:58;9.25;;;7.18;;
68866;SDS011;56451;44.804;20.476;2022-07-01T08:50:33;9.93;;;8.07;;
68866;SDS011;56451;44.804;20.476;2022-07-01T08:53:00;10.57;;;7.22;;
68866;SDS011;56451;44.804;20.476;2022-07-01T08:55:26;10.68;;;7.78;;
68866;SDS011;56451;44.804;20.476;2022-07-01T08:57:52;10.38;;;7.60;;
68866;SDS011;56451;44.804;20.476;2022-07-01T09:00:18;13.32;;;8.30;;
68866;SDS011;56451;44.804;20.476;2022-07-01T09:02:57;11.83;;;8.57;;
68866;SDS011;56451;44.804;20.476;2022-07-01T09:05:25;12.82;;;8.27;;
68866;SDS011;56451;44.804;20.476;2022-07-01T09:07:57;11.77;;;8.00;;
68866;SDS011;56451;44.804;20.476;2022-07-01T09:10:23;8.20;;;7.38;;
68866;SDS011;56451;44.804;20.476;2022-07-01T09:12:49;8.57;;;6.65;;
68866;SDS011;56451;44.804;20.476;2022-07-01T09:15:18;7.47;;;6.73;;
68866;SDS011;56451;44.804;20.476;2022-07-01T09:17:44;11.43;;;6.90;;
68866;SDS011;56451;44.804;20.476;2022-07-01T09:20:22;10.83;;;8.13;;
68866;SDS011;56451;44.804;20.476;2022-07-01T09:23:02;10.75;;;6.88;;
68866;SDS011;56451;44.804;20.476;2022-07-01T09:25:37;13.05;;;7.50;;
68866;SDS011;56451;44.804;20.476;2022-07-01T09:28:09;10.68;;;7.70;;
68866;SDS011;56451;44.804;20.476;2022-07-01T09:30:53;12.18;;;7.57;;
68866;SDS011;56451;44.804;20.476;2022-07-01T09:33:24;11.60;;;8.50;;
68866;SDS011;56451;44.804;20.476;2022-07-01T09:35:51;10.88;;;9.10;;
68866;SDS011;56451;44.804;20.476;2022-07-01T09:38:22;9.30;;;6.82;;
68866;SDS011;56451;44.804;20.476;2022-07-01T09:48:25;9.35;;;6.78;;
68866;SDS011;56451;44.804;20.476;2022-07-01T09:51:07;9.98;;;6.38;;
68866;SDS011;56451;44.804;20.476;2022-07-01T09:53:34;7.88;;;6.20;;
68866;SDS011;56451;44.804;20.476;2022-07-01T09:56:01;11.30;;;6.53;;
68866;SDS011;56451;44.804;20.476;2022-07-01T09:58:27;8.48;;;6.65;;
68866;SDS011;56451;44.804;20.476;2022-07-01T10:00:53;8.65;;;6.43;;
68866;SDS011;56451;44.804;20.476;2022-07-01T10:03:19;9.60;;;5.82;;
68866;SDS011;56451;44.804;20.476;2022-07-01T10:05:50;11.17;;;7.70;;
68866;SDS011;56451;44.804;20.476;2022-07-01T10:10:48;8.13;;;5.70;;
68866;SDS011;56451;44.804;20.476;2022-07-01T10:13:21;8.65;;;5.97;;
68866;SDS011;56451;44.804;20.476;2022-07-01T10:15:50;5.70;;;5.10;;
68866;SDS011;56451;44.804;20.476;2022-07-01T10:18:21;7.80;;;5.53;;
68866;SDS011;56451;44.804;20.476;2022-07-01T10:20:49;6.18;;;5.57;;
68866;SDS011;56451;44.804;20.476;2022-07-01T10:23:15;11.63;;;6.15;;
68866;SDS011;56451;44.804;20.476;2022-07-01T10:25:45;6.70;;;6.10;;
68866;SDS011;56451;44.804;20.476;2022-07-01T10:30:48;7.28;;;5.72;;
68866;SDS011;56451;44.804;20.476;2022-07-01T10:38:34;8.18;;;6.03;;
68866;SDS011;56451;44.804;20.476;2022-07-01T10:41:24;7.20;;;5.77;;
68866;SDS011;56451;44.804;20.476;2022-07-01T10:43:53;6.57;;;5.88;;
68866;SDS011;56451;44.804;20.476;2022-07-01T10:49:13;6.72;;;6.07;;
68866;SDS011;56451;44.804;20.476;2022-07-01T10:51:45;7.43;;;5.75;;
68866;SDS011;56451;44.804;20.476;2022-07-01T10:59:43;8.25;;;5.63;;
68866;SDS011;56451;44.804;20.476;2022-07-01T11:02:11;8.05;;;5.35;;
68866;SDS011;56451;44.804;20.476;2022-07-01T11:04:38;6.07;;;5.35;;
68866;SDS011;56451;44.804;20.476;2022-07-01T11:07:04;6.37;;;5.63;;
68866;SDS011;56451;44.804;20.476;2022-07-01T11:09:29;6.45;;;5.75;;
68866;SDS011;56451;44.804;20.476;2022-07-01T11:11:55;6.93;;;5.60;;
68866;SDS011;56451;44.804;20.476;2022-07-01T11:14:22;5.50;;;5.00;;
68866;SDS011;56451;44.804;20.476;2022-07-01T11:16:48;8.40;;;5.20;;
68866;SDS011;56451;44.804;20.476;2022-07-01T11:19:17;6.20;;;5.35;;
68866;SDS011;56451;44.804;20.476;2022-07-01T11:21:53;6.05;;;5.25;;
68866;SDS011;56451;44.804;20.476;2022-07-01T11:24:20;6.30;;;4.70;;
68866;SDS011;56451;44.804;20.476;2022-07-01T11:26:47;7.00;;;5.67;;
68866;SDS011;56451;44.804;20.476;2022-07-01T11:29:13;6.32;;;5.50;;
68866;SDS011;56451;44.804;20.476;2022-07-01T11:31:41;6.93;;;5.63;;
68866;SDS011;56451;44.804;20.476;2022-07-01T11:34:07;9.10;;;5.47;;
68866;SDS011;56451;44.804;20.476;2022-07-01T11:36:33;6.40;;;5.80;;
68866;SDS011;56451;44.804;20.476;2022-07-01T11:39:17;9.05;;;5.32;;
68866;SDS011;56451;44.804;20.476;2022-07-01T11:41:47;6.97;;;5.53;;
68866;SDS011;56451;44.804;20.476;2022-07-01T11:44:30;6.35;;;5.68;;
68866;SDS011;56451;44.804;20.476;2022-07-01T11:46:59;7.55;;;5.90;;
68866;SDS011;56451;44.804;20.476;2022-07-01T11:49:26;7.47;;;5.73;;
68866;SDS011;56451;44.804;20.476;2022-07-01T11:52:02;13.00;;;6.18;;
68866;SDS011;56451;44.804;20.476;2022-07-01T11:54:36;7.85;;;5.45;;
68866;SDS011;56451;44.804;20.476;2022-07-01T11:59:39;9.77;;;5.93;;
68866;SDS011;56451;44.804;20.476;2022-07-01T12:02:06;8.57;;;6.03;;
68866;SDS011;56451;44.804;20.476;2022-07-01T12:04:33;8.80;;;6.20;;
68866;SDS011;56451;44.804;20.476;2022-07-01T12:06:59;9.27;;;6.32;;
68866;SDS011;56451;44.804;20.476;2022-07-01T12:09:26;8.23;;;5.90;;
68866;SDS011;56451;44.804;20.476;2022-07-01T12:11:52;9.07;;;5.40;;
68866;SDS011;56451;44.804;20.476;2022-07-01T12:14:22;10.27;;;6.30;;
68866;SDS011;56451;44.804;20.476;2022-07-01T12:16:51;10.02;;;6.50;;
68866;SDS011;56451;44.804;20.476;2022-07-01T12:22:04;6.43;;;5.85;;
68866;SDS011;56451;44.804;20.476;2022-07-01T12:24:32;6.20;;;5.60;;
68866;SDS011;56451;44.804;20.476;2022-07-01T12:29:25;6.85;;;5.60;;
68866;SDS011;56451;44.804;20.476;2022-07-01T12:32:00;6.53;;;5.80;;
68866;SDS011;56451;44.804;20.476;2022-07-01T12:34:44;11.45;;;6.10;;
68866;SDS011;56451;44.804;20.476;2022-07-01T12:37:31;5.90;;;5.40;;
68866;SDS011;56451;44.804;20.476;2022-07-01T12:42:31;6.22;;;5.35;;
68866;SDS011;56451;44.804;20.476;2022-07-01T12:45:08;10.80;;;5.90;;
68866;SDS011;56451;44.804;20.476;2022-07-01T12:47:37;6.43;;;5.38;;
68866;SDS011;56451;44.804;20.476;2022-07-01T12:50:08;8.40;;;6.18;;
68866;SDS011;56451;44.804;20.476;2022-07-01T12:52:44;7.95;;;6.10;;
68866;SDS011;56451;44.804;20.476;2022-07-01T12:55:22;7.00;;;6.25;;
68866;SDS011;56451;44.804;20.476;2022-07-01T12:57:49;7.50;;;5.80;;
68866;SDS011;56451;44.804;20.476;2022-07-01T13:00:17;8.73;;;6.22;;
68866;SDS011;56451;44.804;20.476;2022-07-01T13:02:44;7.28;;;5.95;;
68866;SDS011;56451;44.804;20.476;2022-07-01T13:05:10;11.27;;;7.03;;
68866;SDS011;56451;44.804;20.476;2022-07-01T13:07:36;10.70;;;6.32;;
68866;SDS011;56451;44.804;20.476;2022-07-01T13:10:02;7.47;;;6.70;;
68866;SDS011;56451;44.804;20.476;2022-07-01T13:12:29;11.07;;;6.00;;
68866;SDS011;56451;44.804;20.476;2022-07-01T13:14:55;8.82;;;5.90;;
68866;SDS011;56451;44.804;20.476;2022-07-01T13:17:23;8.40;;;6.13;;
68866;SDS011;56451;44.804;20.476;2022-07-01T13:19:49;7.07;;;6.38;;
68866;SDS011;56451;44.804;20.476;2022-07-01T13:22:15;6.70;;;6.10;;
68866;SDS011;56451;44.804;20.476;2022-07-01T13:24:41;8.95;;;6.40;;
68866;SDS011;56451;44.804;20.476;2022-07-01T13:27:07;8.15;;;6.22;;
68866;SDS011;56451;44.804;20.476;2022-07-01T13:29:33;8.57;;;6.10;;
68866;SDS011;56451;44.804;20.476;2022-07-01T13:31:58;8.65;;;6.40;;
68866;SDS011;56451;44.804;20.476;2022-07-01T13:34:24;7.93;;;6.18;;
68866;SDS011;56451;44.804;20.476;2022-07-01T13:36:50;7.47;;;6.10;;
68866;SDS011;56451;44.804;20.476;2022-07-01T13:39:16;9.70;;;6.38;;
68866;SDS011;56451;44.804;20.476;2022-07-01T13:41:42;7.47;;;5.73;;
68866;SDS011;56451;44.804;20.476;2022-07-01T13:44:07;6.80;;;6.20;;
68866;SDS011;56451;44.804;20.476;2022-07-01T13:46:34;8.38;;;7.07;;
68866;SDS011;56451;44.804;20.476;2022-07-01T13:49:00;7.82;;;6.65;;
68866;SDS011;56451;44.804;20.476;2022-07-01T13:51:27;9.77;;;6.40;;
68866;SDS011;56451;44.804;20.476;2022-07-01T13:53:53;7.57;;;6.30;;
68866;SDS011;56451;44.804;20.476;2022-07-01T13:56:19;7.80;;;6.55;;
68866;SDS011;56451;44.804;20.476;2022-07-01T13:58:44;7.13;;;6.43;;
68866;SDS011;56451;44.804;20.476;2022-07-01T14:01:10;7.47;;;6.63;;
68866;SDS011;56451;44.804;20.476;2022-07-01T14:03:36;7.10;;;6.40;;
68866;SDS011;56451;44.804;20.476;2022-07-01T14:06:02;8.77;;;6.50;;
68866;SDS011;56451;44.804;20.476;2022-07-01T14:08:27;7.57;;;6.88;;
68866;SDS011;56451;44.804;20.476;2022-07-01T14:10:53;7.23;;;6.60;;
68866;SDS011;56451;44.804;20.476;2022-07-01T14:13:19;8.32;;;6.50;;
68866;SDS011;56451;44.804;20.476;2022-07-01T14:15:47;8.35;;;6.88;;
68866;SDS011;56451;44.804;20.476;2022-07-01T14:18:13;6.38;;;5.88;;
68866;SDS011;56451;44.804;20.476;2022-07-01T14:20:40;7.30;;;6.13;;
68866;SDS011;56451;44.804;20.476;2022-07-01T14:23:06;7.82;;;7.03;;
68866;SDS011;56451;44.804;20.476;2022-07-01T14:25:32;7.95;;;6.97;;
68866;SDS011;56451;44.804;20.476;2022-07-01T14:27:58;10.83;;;6.80;;
68866;SDS011;56451;44.804;20.476;2022-07-01T14:30:23;8.20;;;6.38;;
68866;SDS011;56451;44.804;20.476;2022-07-01T14:32:49;6.70;;;6.00;;
68866;SDS011;56451;44.804;20.476;2022-07-01T14:35:15;6.85;;;6.25;;
68866;SDS011;56451;44.804;20.476;2022-07-01T14:37:41;8.65;;;6.40;;
68866;SDS011;56451;44.804;20.476;2022-07-01T14:40:09;10.63;;;6.93;;
68866;SDS011;56451;44.804;20.476;2022-07-01T14:42:37;7.20;;;6.03;;
68866;SDS011;56451;44.804;20.476;2022-07-01T14:45:05;9.32;;;6.93;;
68866;SDS011;56451;44.804;20.476;2022-07-01T14:47:32;7.05;;;6.20;;
68866;SDS011;56451;44.804;20.476;2022-07-01T14:49:58;9.37;;;7.23;;
68866;SDS011;56451;44.804;20.476;2022-07-01T14:52:25;7.07;;;6.37;;
68866;SDS011;56451;44.804;20.476;2022-07-01T14:54:51;7.45;;;6.55;;
68866;SDS011;56451;44.804;20.476;2022-07-01T14:57:18;9.07;;;6.50;;
68866;SDS011;56451;44.804;20.476;2022-07-01T14:59:44;6.40;;;5.95;;